Time;durP1;ratioP1;P1;durP2;ratioP2;P2;SDS_P1;SDS_P2;PMS_P1;PMS_P2;Temp;Humidity;BMP_temperature;BMP_pressure;BME280_temperature;BME280_humidity;BME280_pressure;Samples;Min_cycle;Max_cycle;Signal;HPM_P1;HPM_P2
2021/10/05 00:00:33;;;;;;;9.50;5.77;;;;;;;7.09;71.74;101057.34;1750152;80;21076;-55
2021/10/05 00:02:59;;;;;;;9.13;6.07;;;;;;;7.07;71.90;101055.13;1752509;80;21135;-55
2021/10/05 00:05:26;;;;;;;9.90;5.00;;;;;;;7.07;72.04;101057.36;1750048;80;21128;-55
2021/10/05 00:07:52;;;;;;;6.33;5.27;;;;;;;7.10;72.12;101061.34;1748980;80;21069;-55
2021/10/05 00:10:18;;;;;;;8.03;6.80;;;;;;;7.12;72.20;101059.99;1748502;80;21037;-55
2021/10/05 00:12:46;;;;;;;11.13;6.60;;;;;;;7.13;72.19;101057.30;1748704;80;21061;-55
2021/10/05 00:15:13;;;;;;;10.27;7.47;;;;;;;7.12;72.20;101059.55;1745738;80;21130;-55
2021/10/05 00:17:39;;;;;;;12.60;7.80;;;;;;;7.09;72.22;101054.66;1750514;80;21072;-55
2021/10/05 00:20:08;;;;;;;15.87;7.30;;;;;;;7.07;72.28;101056.02;1749163;80;21252;-55
2021/10/05 00:22:34;;;;;;;9.07;6.93;;;;;;;7.02;72.37;101052.98;1752747;80;20966;-55
2021/10/05 00:25:00;;;;;;;6.60;5.63;;;;;;;6.94;72.47;101049.52;1752915;80;20950;-55
2021/10/05 00:27:26;;;;;;;9.97;5.53;;;;;;;6.91;72.61;101057.13;1752971;80;21077;-55
2021/10/05 00:29:52;;;;;;;8.80;5.50;;;;;;;6.89;72.73;101055.40;1750829;80;20973;-55
2021/10/05 00:32:19;;;;;;;10.40;6.70;;;;;;;6.88;72.80;101055.85;1750125;80;21053;-55
2021/10/05 00:34:45;;;;;;;7.07;5.63;;;;;;;6.90;72.89;101055.35;1747844;80;21069;-54
2021/10/05 00:37:11;;;;;;;15.47;7.67;;;;;;;6.94;72.88;101062.91;1754721;80;20998;-54
2021/10/05 00:39:38;;;;;;;10.70;7.90;;;;;;;6.93;72.88;101059.34;1749886;80;21121;-54
2021/10/05 00:42:04;;;;;;;10.67;8.10;;;;;;;6.92;72.91;101059.36;1752431;79;22809;-54
2021/10/05 00:44:36;;;;;;;16.23;8.90;;;;;;;6.88;72.93;101068.34;1757606;79;21487;-54
2021/10/05 00:47:06;;;;;;;12.63;8.23;;;;;;;6.81;72.96;101064.38;1740151;80;21320;-54
2021/10/05 00:49:33;;;;;;;17.17;8.90;;;;;;;6.73;73.10;101063.59;1777100;79;21044;-55
2021/10/05 00:52:01;;;;;;;9.90;8.00;;;;;;;6.67;73.23;101059.66;1781484;78;21052;-55
2021/10/05 00:54:32;;;;;;;16.13;8.20;;;;;;;6.63;73.36;101065.97;1774887;79;21060;-55
2021/10/05 00:56:59;;;;;;;9.63;7.53;;;;;;;6.59;73.55;101058.86;1779735;78;21058;-55
2021/10/05 00:59:25;;;;;;;13.57;8.00;;;;;;;6.59;73.69;101064.21;1777033;79;21097;-55
2021/10/05 01:01:51;;;;;;;8.43;7.03;;;;;;;6.59;73.83;101067.34;1744555;80;21038;-54
2021/10/05 01:04:18;;;;;;;11.37;8.50;;;;;;;6.62;73.91;101068.20;1773149;78;21092;-54
2021/10/05 01:06:50;;;;;;;12.67;9.23;;;;;;;6.64;73.96;101065.48;1773325;78;21219;-55
2021/10/05 01:09:16;;;;;;;14.23;10.60;;;;;;;6.62;73.99;101069.54;1738203;80;21437;-54
2021/10/05 01:11:42;;;;;;;16.60;11.03;;;;;;;6.58;74.07;101066.45;1766104;79;20950;-54
2021/10/05 01:14:08;;;;;;;16.00;10.60;;;;;;;6.55;74.18;101069.14;1777175;78;20958;-55
2021/10/05 01:16:35;;;;;;;12.13;8.77;;;;;;;6.53;74.27;101070.98;1780380;78;21095;-54
2021/10/05 01:19:01;;;;;;;16.30;9.60;;;;;;;6.50;74.44;101071.00;1779398;78;20914;-54
2021/10/05 01:21:28;;;;;;;14.53;10.47;;;;;;;6.51;74.55;101071.88;1788877;79;20947;-55
2021/10/05 01:23:54;;;;;;;11.60;9.03;;;;;;;6.52;74.65;101069.20;1748928;80;20990;-54
2021/10/05 01:26:20;;;;;;;13.77;10.23;;;;;;;6.52;74.79;101077.23;1761968;79;21365;-55
2021/10/05 01:28:47;;;;;;;15.00;9.83;;;;;;;6.54;74.83;101076.77;1756466;80;21161;-55
2021/10/05 01:31:13;;;;;;;13.87;9.77;;;;;;;6.58;74.86;101077.59;1753909;80;21477;-55
2021/10/05 01:33:39;;;;;;;20.77;12.87;;;;;;;6.58;74.88;101083.84;1753546;80;22197;-54
2021/10/05 01:36:05;;;;;;;14.87;11.30;;;;;;;6.57;74.93;101081.17;1753760;79;21519;-55
2021/10/05 01:38:32;;;;;;;17.30;11.63;;;;;;;6.52;74.95;101081.23;1749842;80;21455;-55
2021/10/05 01:40:58;;;;;;;17.70;11.27;;;;;;;6.49;75.01;101084.38;1755761;80;21377;-54
2021/10/05 01:43:25;;;;;;;13.80;10.07;;;;;;;6.44;75.11;101082.66;1754812;80;20961;-54
2021/10/05 01:45:52;;;;;;;15.87;10.27;;;;;;;6.40;75.28;101084.02;1750322;80;20951;-56
2021/10/05 01:48:18;;;;;;;11.53;8.27;;;;;;;6.36;75.46;101083.64;1752451;79;20944;-55
2021/10/05 01:50:45;;;;;;;14.03;9.80;;;;;;;6.34;75.61;101082.31;1753997;80;21061;-55
2021/10/05 01:53:11;;;;;;;13.70;10.10;;;;;;;6.37;75.73;101086.75;1752238;79;21039;-55
2021/10/05 01:55:37;;;;;;;17.77;9.77;;;;;;;6.39;75.83;101083.14;1751984;80;21001;-55
2021/10/05 01:58:03;;;;;;;15.13;10.30;;;;;;;6.42;75.89;101084.91;1758021;80;21511;-55
2021/10/05 02:00:30;;;;;;;17.80;10.60;;;;;;;6.41;75.93;101088.03;1759031;80;21568;-55
2021/10/05 02:02:56;;;;;;;11.87;10.00;;;;;;;6.38;75.96;101089.86;1751283;79;21068;-55
2021/10/05 02:05:22;;;;;;;13.33;9.83;;;;;;;6.35;76.01;101089.44;1748149;79;21121;-55
2021/10/05 02:07:49;;;;;;;16.53;9.93;;;;;;;6.32;76.09;101093.91;1749499;80;21013;-54
2021/10/05 02:10:15;;;;;;;19.60;9.83;;;;;;;6.31;76.20;101094.81;1752332;80;21104;-55
2021/10/05 02:12:41;;;;;;;11.07;8.77;;;;;;;6.30;76.27;101093.03;1748663;80;21040;-54
2021/10/05 02:15:10;;;;;;;13.67;9.63;;;;;;;6.31;76.38;101099.71;1774150;78;21084;-55
2021/10/05 02:17:37;;;;;;;13.13;8.93;;;;;;;6.34;76.40;101104.16;1777586;78;21464;-55
2021/10/05 02:20:05;;;;;;;12.37;10.13;;;;;;;6.37;76.41;101110.38;1775222;78;21093;-54
2021/10/05 02:22:32;;;;;;;14.00;10.73;;;;;;;6.40;76.41;101110.77;1777961;78;21024;-55
2021/10/05 02:24:58;;;;;;;14.37;11.43;;;;;;;6.39;76.36;101117.02;1776000;78;21038;-55
2021/10/05 02:27:25;;;;;;;12.17;10.60;;;;;;;6.35;76.36;101113.50;1757370;79;21358;-54
2021/10/05 02:29:51;;;;;;;13.27;10.07;;;;;;;6.31;76.39;101118.87;1763194;79;22858;-55
2021/10/05 02:32:18;;;;;;;16.30;9.43;;;;;;;6.26;76.46;101120.72;1757578;79;21598;-53
2021/10/05 02:34:44;;;;;;;17.50;10.53;;;;;;;6.22;76.57;101114.95;1760712;79;21362;-55
2021/10/05 02:37:11;;;;;;;13.60;9.47;;;;;;;6.19;76.67;101127.92;1755625;79;21906;-54
2021/10/05 02:39:37;;;;;;;16.10;9.73;;;;;;;6.18;76.79;101119.45;1759235;79;21527;-54
2021/10/05 02:42:04;;;;;;;15.70;9.03;;;;;;;6.17;76.89;101123.02;1758992;79;21145;-54
2021/10/05 02:44:31;;;;;;;14.87;9.03;;;;;;;6.21;76.94;101128.77;1760174;79;21040;-54
2021/10/05 02:46:57;;;;;;;14.30;10.20;;;;;;;6.25;76.97;101128.30;1760771;79;21080;-54
2021/10/05 02:49:23;;;;;;;13.33;10.57;;;;;;;6.27;76.95;101132.75;1744465;80;21081;-54
2021/10/05 02:51:50;;;;;;;14.50;11.30;;;;;;;6.27;76.97;101138.09;1777535;79;21426;-54
2021/10/05 02:54:16;;;;;;;14.77;11.87;;;;;;;6.25;76.98;101134.54;1748588;80;22235;-54
2021/10/05 02:56:43;;;;;;;13.27;11.20;;;;;;;6.22;77.03;101137.23;1750058;80;21069;-54
2021/10/05 02:59:11;;;;;;;11.90;9.53;;;;;;;6.21;77.03;101139.94;1750988;80;21363;-55
2021/10/05 03:01:38;;;;;;;12.97;8.97;;;;;;;6.21;77.03;101135.93;1744508;80;21138;-54
2021/10/05 03:04:05;;;;;;;10.67;8.10;;;;;;;6.20;77.12;101131.48;1774308;78;21033;-55
2021/10/05 03:06:32;;;;;;;13.40;8.87;;;;;;;6.21;77.12;101138.13;1746107;80;21143;-54
2021/10/05 03:08:58;;;;;;;12.73;8.13;;;;;;;6.23;77.20;101128.76;1744027;80;21084;-55
2021/10/05 03:11:24;;;;;;;10.93;8.87;;;;;;;6.23;77.23;101126.97;1758600;79;21111;-55
2021/10/05 03:13:51;;;;;;;12.20;9.53;;;;;;;6.23;77.22;101129.65;1758603;79;21053;-55
2021/10/05 03:16:17;;;;;;;15.23;10.83;;;;;;;6.24;77.15;101125.19;1758818;79;21674;-54
2021/10/05 03:18:45;;;;;;;13.03;9.97;;;;;;;6.20;77.18;101130.14;1757125;79;22272;-55
2021/10/05 03:21:11;;;;;;;16.73;10.23;;;;;;;6.16;77.25;101135.06;1762274;79;21036;-55
2021/10/05 03:23:39;;;;;;;11.83;8.67;;;;;;;6.12;77.29;101138.23;1756478;79;21432;-54
2021/10/05 03:26:06;;;;;;;12.67;8.17;;;;;;;6.08;77.39;101131.12;1760914;79;21124;-55
2021/10/05 03:28:33;;;;;;;11.37;8.20;;;;;;;6.06;77.50;101138.25;1755614;79;21119;-53
2021/10/05 03:31:00;;;;;;;12.13;8.23;;;;;;;6.05;77.61;101136.03;1757938;79;21826;-54
2021/10/05 03:33:26;;;;;;;12.77;8.13;;;;;;;6.06;77.63;101144.49;1758824;79;21424;-55
2021/10/05 03:35:53;;;;;;;13.83;10.23;;;;;;;6.07;77.73;101146.27;1745193;80;21349;-54
2021/10/05 03:38:19;;;;;;;11.50;9.07;;;;;;;6.07;77.73;101143.59;1747548;80;21543;-54
2021/10/05 03:40:45;;;;;;;12.63;10.17;;;;;;;6.05;77.70;101141.38;1775957;78;21424;-54
2021/10/05 03:43:12;;;;;;;11.97;9.10;;;;;;;6.01;77.74;101143.66;1773079;78;21460;-54
2021/10/05 03:45:38;;;;;;;15.33;8.70;;;;;;;5.99;77.81;101148.12;1777212;78;21479;-53
2021/10/05 03:48:04;;;;;;;14.57;8.83;;;;;;;5.97;77.87;101148.56;1775435;78;21747;-54
2021/10/05 03:50:31;;;;;;;13.50;9.17;;;;;;;5.96;77.96;101149.46;1775599;79;21185;-54
2021/10/05 03:52:57;;;;;;;14.83;9.00;;;;;;;5.94;78.00;101143.27;1774160;78;21693;-54
2021/10/05 03:55:24;;;;;;;11.53;8.53;;;;;;;5.94;78.09;101149.95;1771712;78;21670;-54
2021/10/05 03:57:50;;;;;;;14.20;9.70;;;;;;;5.97;78.16;101148.56;1778126;79;21029;-54
2021/10/05 04:00:16;;;;;;;11.80;8.93;;;;;;;5.97;78.18;101149.91;1779226;79;21048;-54
2021/10/05 04:02:43;;;;;;;10.37;9.10;;;;;;;5.97;78.21;101153.91;1775102;78;21033;-54
2021/10/05 04:05:10;;;;;;;13.53;9.93;;;;;;;5.95;78.19;101149.50;1778494;78;21135;-54
2021/10/05 04:07:37;;;;;;;16.90;10.27;;;;;;;5.93;78.21;101147.28;1776348;78;21151;-53
2021/10/05 04:10:05;;;;;;;15.07;9.27;;;;;;;5.88;78.26;101151.30;1774760;78;21354;-54
2021/10/05 04:12:33;;;;;;;15.07;9.80;;;;;;;5.82;78.35;101147.77;1775572;78;21104;-55
2021/10/05 04:15:00;;;;;;;12.40;9.80;;;;;;;5.79;78.48;101145.09;1745578;80;22011;-53
2021/10/05 04:17:27;;;;;;;11.97;9.20;;;;;;;5.76;78.63;101149.15;1744427;80;21838;-55
2021/10/05 04:19:53;;;;;;;16.97;9.70;;;;;;;5.76;78.69;101150.48;1741679;80;21510;-55
2021/10/05 04:22:19;;;;;;;13.90;8.77;;;;;;;5.78;78.80;101159.38;1740584;80;21351;-54
2021/10/05 04:24:46;;;;;;;11.57;8.80;;;;;;;5.80;78.85;101163.80;1728043;80;21802;-54
2021/10/05 04:27:12;;;;;;;11.27;8.73;;;;;;;5.83;78.92;101162.90;1743874;80;20863;-55
2021/10/05 04:29:39;;;;;;;13.27;10.43;;;;;;;5.85;78.88;101170.47;1714715;81;21339;-54
2021/10/05 04:32:07;;;;;;;14.93;11.03;;;;;;;5.84;78.85;101170.02;1720013;81;21125;-54
2021/10/05 04:34:33;;;;;;;10.33;8.03;;;;;;;5.82;78.85;101173.14;1722725;81;20974;-54
2021/10/05 04:37:00;;;;;;;13.93;9.47;;;;;;;5.79;78.88;101172.70;1719455;81;21493;-53
2021/10/05 04:39:26;;;;;;;14.97;10.43;;;;;;;5.76;78.98;101175.42;1719978;81;21396;-54
2021/10/05 04:41:52;;;;;;;17.33;9.27;;;;;;;5.77;79.09;101178.98;1744903;80;21342;-54
2021/10/05 04:44:18;;;;;;;13.87;10.67;;;;;;;5.77;79.18;101178.98;1767071;78;21075;-54
2021/10/05 04:46:45;;;;;;;13.23;9.43;;;;;;;5.80;79.24;101185.63;1778807;78;20859;-54
2021/10/05 04:49:11;;;;;;;15.37;9.83;;;;;;;5.83;79.31;101183.83;1763155;79;20897;-54
2021/10/05 04:51:37;;;;;;;18.53;11.30;;;;;;;5.89;79.35;101186.94;1753627;80;20963;-55
2021/10/05 04:54:04;;;;;;;14.40;10.37;;;;;;;5.94;79.35;101186.03;1741335;80;21020;-54
2021/10/05 04:59:08;;;;;;;14.57;11.13;;;;;;;6.02;79.29;101198.00;1862504;75;22621;-55
2021/10/05 05:01:34;;;;;;;14.07;10.30;;;;;;;5.99;79.27;101201.58;1836583;77;21271;-55
2021/10/05 05:04:01;;;;;;;16.13;10.00;;;;;;;5.98;79.30;101208.26;1834087;77;21369;-54
2021/10/05 05:06:27;;;;;;;11.90;9.37;;;;;;;5.98;79.38;101204.25;1834759;77;20985;-54
2021/10/05 05:08:53;;;;;;;15.77;9.70;;;;;;;5.98;79.50;101209.59;1835781;77;21246;-55
2021/10/05 05:11:20;;;;;;;15.70;9.80;;;;;;;6.06;79.66;101210.43;1834256;77;21250;-55
2021/10/05 05:13:46;;;;;;;12.43;9.30;;;;;;;6.16;79.66;101205.91;1835213;77;21565;-55
2021/10/05 05:16:14;;;;;;;14.47;9.73;;;;;;;6.28;79.61;101209.40;1836051;77;21374;-54
2021/10/05 05:18:41;;;;;;;26.20;10.97;;;;;;;6.42;79.53;101210.16;1833961;77;21014;-54
2021/10/05 05:21:07;;;;;;;14.33;11.07;;;;;;;6.54;79.28;101206.51;1835783;77;21053;-53
2021/10/05 05:23:33;;;;;;;14.83;10.80;;;;;;;6.65;79.12;101213.08;1829989;77;21571;-54
2021/10/05 05:26:00;;;;;;;14.90;11.57;;;;;;;6.74;78.95;101205.86;1828627;77;21052;-54
2021/10/05 05:28:26;;;;;;;17.60;11.23;;;;;;;6.82;78.67;101212.02;1833711;77;21084;-54
2021/10/05 05:30:53;;;;;;;13.50;10.37;;;;;;;6.88;78.45;101214.22;1832595;77;21081;-55
2021/10/05 05:33:19;;;;;;;13.37;9.00;;;;;;;6.90;78.18;101225.33;1811327;77;21154;-54
2021/10/05 05:35:46;;;;;;;13.00;9.33;;;;;;;6.93;78.15;101225.30;1809223;77;21095;-54
2021/10/05 05:38:12;;;;;;;16.83;12.27;;;;;;;6.97;77.92;101230.19;1810103;77;20953;-55
2021/10/05 05:40:39;;;;;;;12.07;9.70;;;;;;;7.03;77.79;101230.12;1808801;77;22610;-54
2021/10/05 05:43:05;;;;;;;18.83;11.27;;;;;;;7.08;77.74;101229.16;1807422;77;21310;-53
2021/10/05 05:45:33;;;;;;;14.90;10.43;;;;;;;7.16;77.65;101229.95;1810112;77;21364;-54
2021/10/05 05:47:59;;;;;;;16.47;12.00;;;;;;;7.23;77.41;101232.11;1808035;77;21198;-53
2021/10/05 05:50:26;;;;;;;18.07;10.90;;;;;;;7.29;77.25;101233.41;1807081;77;21477;-55
2021/10/05 05:52:52;;;;;;;19.37;11.00;;;;;;;7.31;77.10;101230.27;1808314;77;21443;-55
2021/10/05 05:55:18;;;;;;;15.07;10.23;;;;;;;7.33;76.95;101239.59;1810411;77;20989;-55
2021/10/05 05:57:50;;;;;;;14.17;10.37;;;;;;;7.34;76.96;101248.06;1810925;76;20971;-54
2021/10/05 06:00:16;;;;;;;15.50;10.87;;;;;;;7.38;77.02;101242.67;1814552;76;21025;-54
2021/10/05 06:02:42;;;;;;;16.20;11.03;;;;;;;7.49;76.95;101239.84;1816679;76;21127;-54
2021/10/05 06:05:09;;;;;;;15.03;11.50;;;;;;;7.58;76.74;101248.66;1818623;76;21112;-55
2021/10/05 06:07:35;;;;;;;15.47;12.13;;;;;;;7.60;76.55;101251.33;1811923;76;21039;-54
2021/10/05 06:10:04;;;;;;;16.03;10.20;;;;;;;7.64;76.45;101254.88;1821024;76;21032;-56
2021/10/05 06:12:38;;;;;;;18.93;11.77;;;;;;;7.68;76.43;101253.45;1827774;76;20882;-55
2021/10/05 06:15:11;;;;;;;17.73;11.28;;;;;;;7.75;76.30;101251.58;1817128;76;20940;-55
2021/10/05 06:17:42;;;;;;;16.17;10.63;;;;;;;7.81;76.18;101255.09;1820932;76;22348;-53
2021/10/05 06:20:13;;;;;;;16.23;10.20;;;;;;;7.88;75.98;101254.55;1820110;76;20944;-53
2021/10/05 06:22:39;;;;;;;15.77;10.97;;;;;;;7.94;75.94;101254.45;1812740;76;21376;-54
2021/10/05 06:25:11;;;;;;;12.30;9.37;;;;;;;8.03;75.86;101261.03;1814986;76;20972;-54
2021/10/05 06:27:37;;;;;;;17.37;11.47;;;;;;;8.14;75.74;101258.20;1816197;76;21055;-55
2021/10/05 06:30:05;;;;;;;15.90;11.67;;;;;;;8.23;75.55;101261.65;1819691;76;21107;-56
2021/10/05 06:32:32;;;;;;;18.13;12.43;;;;;;;8.32;75.48;101258.87;1814797;76;21204;-54
2021/10/05 06:34:59;;;;;;;17.40;11.97;;;;;;;8.42;75.25;101262.75;1811313;76;21040;-54
2021/10/05 06:37:25;;;;;;;19.40;11.30;;;;;;;8.47;75.02;101254.16;1816471;76;21095;-53
2021/10/05 06:39:51;;;;;;;14.03;11.30;;;;;;;8.54;74.84;101262.54;1817701;76;21036;-55
2021/10/05 06:42:18;;;;;;;19.53;10.33;;;;;;;8.63;74.76;101259.25;1820377;76;21123;-54
2021/10/05 06:44:44;;;;;;;17.27;10.37;;;;;;;8.71;74.42;101259.12;1813340;76;21040;-54
2021/10/05 06:47:10;;;;;;;17.10;10.23;;;;;;;8.79;74.30;101265.25;1819511;76;21037;-54
2021/10/05 06:49:38;;;;;;;17.95;11.60;;;;;;;8.85;73.99;101257.53;1812016;76;21091;-56
2021/10/05 06:52:06;;;;;;;16.40;11.00;;;;;;;8.91;73.68;101268.19;1813705;76;21088;-54
2021/10/05 06:54:32;;;;;;;17.30;11.20;;;;;;;8.95;73.63;101268.55;1821166;76;21129;-53
2021/10/05 06:56:59;;;;;;;16.57;11.18;;;;;;;8.98;73.43;101262.69;1819420;77;21518;-54
2021/10/05 06:59:26;;;;;;;17.43;10.73;;;;;;;9.03;73.29;101259.90;1798413;76;20914;-54
2021/10/05 07:01:52;;;;;;;17.57;10.65;;;;;;;9.10;73.15;101262.93;1796128;77;21088;-54
2021/10/05 07:04:18;;;;;;;14.30;9.38;;;;;;;9.16;72.97;101262.81;1793890;77;21108;-54
2021/10/05 07:06:45;;;;;;;12.55;9.45;;;;;;;9.25;72.94;101260.41;1795515;77;22753;-54
2021/10/05 07:09:12;;;;;;;39.33;11.90;;;;;;;9.36;72.95;101262.41;1795355;77;21486;-54
2021/10/05 07:11:38;;;;;;;13.03;10.70;;;;;;;9.48;72.85;101268.45;1794221;77;21033;-55
2021/10/05 07:14:05;;;;;;;14.73;10.65;;;;;;;9.62;72.41;101266.81;1796873;77;22251;-54
2021/10/05 07:16:31;;;;;;;14.25;10.82;;;;;;;9.71;71.97;101261.70;1799894;77;20896;-54
2021/10/05 07:18:58;;;;;;;15.58;11.22;;;;;;;9.79;71.74;101263.31;1793089;77;21149;-53
2021/10/05 07:21:24;;;;;;;16.93;11.48;;;;;;;9.84;71.46;101267.27;1795745;77;21038;-54
2021/10/05 07:23:51;;;;;;;16.15;11.38;;;;;;;9.89;71.23;101262.66;1794463;77;21017;-54
2021/10/05 07:26:17;;;;;;;15.38;10.93;;;;;;;9.95;71.17;101265.70;1794178;77;21365;-54
2021/10/05 07:28:44;;;;;;;15.65;9.68;;;;;;;10.03;70.82;101272.69;1794215;77;21040;-54
2021/10/05 07:31:11;;;;;;;11.88;9.30;;;;;;;10.07;70.75;101266.76;1795218;77;21802;-54
2021/10/05 07:33:37;;;;;;;16.37;9.68;;;;;;;10.15;70.70;101283.62;1792685;77;21481;-53
2021/10/05 07:36:04;;;;;;;17.02;9.98;;;;;;;10.24;70.50;101285.68;1800343;77;20919;-53
2021/10/05 07:38:30;;;;;;;14.23;10.32;;;;;;;10.33;70.26;101277.86;1799450;77;20883;-55
2021/10/05 07:40:56;;;;;;;13.32;10.88;;;;;;;10.43;69.95;101283.92;1801293;77;20902;-55
2021/10/05 07:43:22;;;;;;;12.82;11.43;;;;;;;10.48;69.84;101282.88;1800297;77;21062;-54
2021/10/05 07:45:51;;;;;;;13.10;10.00;;;;;;;10.56;69.63;101280.00;1799197;77;21012;-54
2021/10/05 07:48:17;;;;;;;15.72;11.05;;;;;;;10.63;69.33;101282.11;1791645;77;21491;-54
2021/10/05 07:50:43;;;;;;;15.65;10.90;;;;;;;10.69;69.07;101282.84;1795883;77;21047;-55
2021/10/05 07:53:10;;;;;;;14.10;11.75;;;;;;;10.76;68.82;101277.72;1793744;77;21056;-54
2021/10/05 07:55:36;;;;;;;12.88;9.80;;;;;;;10.84;68.69;101281.56;1795979;77;21571;-56
2021/10/05 07:58:03;;;;;;;13.00;9.45;;;;;;;10.91;68.34;101282.71;1793182;77;21057;-54
2021/10/05 08:00:29;;;;;;;11.50;10.30;;;;;;;10.97;68.06;101274.95;1811775;77;21065;-54
2021/10/05 08:02:56;;;;;;;12.95;9.93;;;;;;;11.07;67.99;101275.58;1807097;77;21107;-54
2021/10/05 08:05:22;;;;;;;11.55;9.75;;;;;;;11.16;67.65;101272.17;1809373;77;21372;-54
2021/10/05 08:08:07;;;;;;;12.13;10.58;;;;;;;11.26;67.25;101275.05;1805208;77;21000;-53
2021/10/05 08:10:38;;;;;;;13.25;10.48;;;;;;;11.34;66.98;101279.78;1808937;77;20929;-53
2021/10/05 08:13:06;;;;;;;13.08;10.10;;;;;;;11.43;66.64;101281.34;1817067;77;20894;-54
2021/10/05 08:15:33;;;;;;;15.88;10.53;;;;;;;11.50;66.34;101282.05;1810157;77;20953;-54
2021/10/05 08:17:59;;;;;;;11.93;10.60;;;;;;;11.53;66.09;101281.97;1807535;77;21036;-54
2021/10/05 08:20:26;;;;;;;12.05;9.13;;;;;;;11.56;66.11;101278.73;1812812;77;21043;-55
2021/10/05 08:22:53;;;;;;;17.85;9.75;;;;;;;11.63;65.91;101283.03;1811767;77;21115;-54
2021/10/05 08:25:19;;;;;;;10.82;9.65;;;;;;;11.70;65.29;101272.94;1807769;77;21033;-54
2021/10/05 08:27:46;;;;;;;13.22;9.63;;;;;;;11.76;65.11;101280.87;1810214;77;21085;-55
2021/10/05 08:30:14;;;;;;;18.45;9.63;;;;;;;11.84;64.67;101276.14;1813744;77;21064;-54
2021/10/05 08:32:41;;;;;;;20.43;9.40;;;;;;;11.88;64.76;101277.84;1812965;77;21022;-54
2021/10/05 08:35:08;;;;;;;17.23;10.95;;;;;;;11.98;64.55;101274.41;1812755;77;21037;-53
2021/10/05 08:37:36;;;;;;;10.98;7.62;;;;;;;12.07;64.26;101271.44;1810531;77;21561;-55
2021/10/05 08:40:05;;;;;;;13.60;9.33;;;;;;;12.11;64.09;101272.62;1809666;77;21044;-54
2021/10/05 08:42:31;;;;;;;11.73;9.75;;;;;;;12.17;63.65;101269.31;1811328;77;21003;-54
2021/10/05 08:45:00;;;;;;;15.48;9.83;;;;;;;12.22;63.29;101278.17;1813088;77;20941;-55
2021/10/05 08:47:28;;;;;;;10.70;9.45;;;;;;;12.25;62.97;101279.44;1749126;80;20967;-55
2021/10/05 08:49:55;;;;;;;9.83;8.90;;;;;;;12.27;62.94;101278.43;1742888;80;21012;-53
2021/10/05 08:52:21;;;;;;;12.75;10.80;;;;;;;12.31;62.84;101280.13;1766648;78;21202;-54
2021/10/05 08:54:48;;;;;;;14.03;9.60;;;;;;;12.37;62.87;101273.63;1768878;79;21506;-53
2021/10/05 08:57:14;;;;;;;13.98;9.58;;;;;;;12.44;62.59;101272.03;1741837;80;21395;-53
2021/10/05 08:59:40;;;;;;;11.78;9.45;;;;;;;12.49;62.50;101271.91;1779229;78;21628;-54
2021/10/05 09:02:13;;;;;;;12.73;9.73;;;;;;;12.56;62.35;101275.28;1771613;78;21100;-54
2021/10/05 09:04:41;;;;;;;10.78;9.40;;;;;;;12.61;62.01;101276.01;1746474;80;20868;-54
2021/10/05 09:07:19;;;;;;;11.65;8.60;;;;;;;12.66;61.55;101271.36;1783278;78;20965;-55
2021/10/05 09:09:59;;;;;;;9.45;8.45;;;;;;;12.67;61.73;101263.21;1754729;79;21177;-54
2021/10/05 09:12:30;;;;;;;9.30;8.43;;;;;;;12.69;61.68;101268.07;1761164;79;21062;-55
2021/10/05 09:14:59;;;;;;;15.35;8.33;;;;;;;12.74;61.28;101272.88;1764055;79;20888;-54
2021/10/05 09:17:28;;;;;;;9.65;7.92;;;;;;;12.80;61.08;101275.37;1763723;79;20956;-54
2021/10/05 09:19:57;;;;;;;11.25;9.90;;;;;;;12.83;60.48;101281.14;1761547;79;21062;-53
2021/10/05 09:22:27;;;;;;;12.85;7.47;;;;;;;12.87;60.44;101276.03;1754796;79;21056;-55
2021/10/05 09:24:57;;;;;;;9.90;7.80;;;;;;;12.90;60.03;101271.89;1756630;79;21480;-55
2021/10/05 09:27:24;;;;;;;6.95;6.22;;;;;;;12.95;60.20;101275.77;1761081;79;20963;-55
2021/10/05 09:29:52;;;;;;;8.58;6.10;;;;;;;13.02;60.03;101271.45;1765477;79;21039;-54
2021/10/05 09:32:23;;;;;;;10.98;6.85;;;;;;;13.08;59.50;101269.91;1763609;79;21395;-54
2021/10/05 09:34:58;;;;;;;9.05;5.17;;;;;;;13.16;58.98;101269.22;1758326;79;21092;-53
2021/10/05 09:37:30;;;;;;;10.10;7.40;;;;;;;13.23;58.84;101263.11;1763872;79;20928;-54
2021/10/05 09:40:10;;;;;;;8.00;6.87;;;;;;;13.31;58.94;101261.48;1759826;79;21239;-55
2021/10/05 09:42:44;;;;;;;6.97;5.62;;;;;;;13.37;58.98;101259.44;1759311;79;20947;-54
2021/10/05 09:45:13;;;;;;;8.30;5.75;;;;;;;13.45;58.21;101253.28;1757384;79;21009;-54
2021/10/05 09:47:51;;;;;;;6.85;5.75;;;;;;;13.49;57.44;101259.02;1756849;79;21105;-56
2021/10/05 09:50:26;;;;;;;19.92;5.92;;;;;;;13.55;57.47;101258.78;1755583;79;21088;-55
2021/10/05 09:52:58;;;;;;;5.65;5.12;;;;;;;13.64;57.23;101249.44;1755533;79;21079;-56
2021/10/05 09:55:30;;;;;;;9.93;4.67;;;;;;;13.73;56.67;101252.27;1754283;79;21042;-55
2021/10/05 09:59:36;;;;;;;11.87;7.10;;;;;;;13.86;56.11;101256.30;1790349;78;22583;-55
2021/10/05 10:02:03;;;;;;;6.55;5.92;;;;;;;13.87;56.12;101262.98;1765540;79;21247;-56
2021/10/05 10:04:32;;;;;;;7.58;5.70;;;;;;;13.92;55.90;101252.88;1765344;79;20870;-56
2021/10/05 10:06:58;;;;;;;5.95;4.83;;;;;;;13.98;56.04;101250.40;1711545;81;20926;-56
2021/10/05 10:09:24;;;;;;;34.60;5.83;;;;;;;14.02;55.97;101250.71;1731577;81;20942;-56
2021/10/05 10:11:51;;;;;;;5.90;4.10;;;;;;;14.08;55.96;101256.34;1718036;81;21350;-56
2021/10/05 10:14:19;;;;;;;7.70;4.65;;;;;;;14.18;55.58;101250.98;1715620;81;21323;-57
2021/10/05 10:16:49;;;;;;;16.77;4.50;;;;;;;14.18;55.58;101250.98;1718409;82;23305;-56
2021/10/05 10:19:29;;;;;;;4.85;3.87;;;;;;;14.28;54.93;101256.45;1718352;82;20878;-55
2021/10/05 10:22:09;;;;;;;6.35;3.75;;;;;;;14.34;54.33;101248.97;1718028;82;20953;-55
2021/10/05 10:24:51;;;;;;;3.52;3.33;;;;;;;14.43;54.16;101238.73;1732420;81;20984;-55
2021/10/05 10:27:18;;;;;;;3.92;3.37;;;;;;;14.47;54.34;101234.94;1719876;81;20978;-56
2021/10/05 10:29:45;;;;;;;6.92;2.75;;;;;;;14.55;53.78;101226.02;1716986;82;21075;-54
2021/10/05 10:32:16;;;;;;;3.08;2.58;;;;;;;14.64;53.31;101216.16;1716515;81;20943;-54
2021/10/05 10:34:43;;;;;;;3.25;2.95;;;;;;;14.71;52.69;101217.22;1715526;81;21006;-54
2021/10/05 10:37:21;;;;;;;3.05;1.92;;;;;;;14.78;52.09;101212.89;1711193;81;20955;-55
2021/10/05 10:39:49;;;;;;;2.77;2.17;;;;;;;14.82;51.44;101208.61;1712770;81;22166;-55
2021/10/05 10:42:30;;;;;;;4.08;2.55;;;;;;;14.87;51.56;101207.08;1718942;81;20947;-54
2021/10/05 10:44:56;;;;;;;2.33;1.87;;;;;;;14.91;50.92;101208.22;1716155;81;20924;-55
2021/10/05 10:47:24;;;;;;;15.93;2.33;;;;;;;14.90;50.82;101217.30;1713499;81;20908;-54
2021/10/05 10:49:59;;;;;;;2.98;1.30;;;;;;;14.93;50.52;101215.81;1713643;81;21450;-56
2021/10/05 10:52:26;;;;;;;1.60;1.50;;;;;;;14.93;49.06;101209.04;1711543;81;20939;-56
2021/10/05 10:54:55;;;;;;;6.33;2.17;;;;;;;14.92;49.23;101210.45;1713665;81;21068;-55
2021/10/05 10:57:43;;;;;;;9.55;2.87;;;;;;;14.95;49.31;101204.91;1712557;81;22057;-54
2021/10/05 11:00:24;;;;;;;7.33;1.82;;;;;;;14.93;49.99;101207.69;1715074;81;21555;-56
2021/10/05 11:02:53;;;;;;;1.52;1.10;;;;;;;14.96;49.62;101201.26;1710191;81;21182;-56
2021/10/05 11:05:22;;;;;;;1.37;1.20;;;;;;;14.94;48.54;101204.50;1714395;81;21014;-54
2021/10/05 11:07:52;;;;;;;1.67;1.47;;;;;;;14.94;48.31;101204.03;1715401;81;21089;-56
2021/10/05 11:10:30;;;;;;;2.75;1.10;;;;;;;14.93;48.51;101202.27;1710983;81;21018;-56
2021/10/05 11:13:02;;;;;;;3.33;1.32;;;;;;;14.94;47.97;101203.14;1712573;81;20983;-55
2021/10/05 11:15:48;;;;;;;2.00;1.50;;;;;;;14.97;47.38;101197.09;1710851;81;21440;-55
2021/10/05 11:18:18;;;;;;;3.87;2.52;;;;;;;14.97;47.20;101199.81;1712026;81;20959;-56
2021/10/05 11:20:51;;;;;;;5.30;1.80;;;;;;;14.99;46.97;101193.85;1711711;81;21149;-54
2021/10/05 11:23:20;;;;;;;8.47;2.67;;;;;;;15.01;46.76;101187.02;1708031;81;21133;-56
2021/10/05 11:25:48;;;;;;;9.80;2.02;;;;;;;15.00;46.52;101183.89;1707969;81;22145;-56
2021/10/05 11:28:16;;;;;;;22.13;3.05;;;;;;;14.96;46.88;101180.45;1709539;81;21086;-55